sensor_id;sensor_type;location;lat;lon;timestamp;P1;durP1;ratioP1;P2;durP2;ratioP2
51612;SDS011;37694;51.748;14.326;2023-04-16T00:01:02;7.25;;;3.83;;
51612;SDS011;37694;51.748;14.326;2023-04-16T00:03:28;10.32;;;4.00;;
51612;SDS011;37694;51.748;14.326;2023-04-16T00:05:53;5.78;;;3.70;;
51612;SDS011;37694;51.748;14.326;2023-04-16T00:08:23;8.80;;;4.32;;
51612;SDS011;37694;51.748;14.326;2023-04-16T00:10:49;9.02;;;4.40;;
51612;SDS011;37694;51.748;14.326;2023-04-16T00:13:15;5.63;;;4.25;;
51612;SDS011;37694;51.748;14.326;2023-04-16T00:15:41;5.72;;;3.97;;
51612;SDS011;37694;51.748;14.326;2023-04-16T00:18:07;9.60;;;4.30;;
51612;SDS011;37694;51.748;14.326;2023-04-16T00:20:32;9.50;;;5.70;;
51612;SDS011;37694;51.748;14.326;2023-04-16T00:22:58;8.93;;;4.38;;
51612;SDS011;37694;51.748;14.326;2023-04-16T00:25:23;7.25;;;4.00;;
51612;SDS011;37694;51.748;14.326;2023-04-16T00:27:49;6.88;;;3.92;;
51612;SDS011;37694;51.748;14.326;2023-04-16T00:30:15;6.68;;;4.38;;
51612;SDS011;37694;51.748;14.326;2023-04-16T00:32:40;7.93;;;4.45;;
51612;SDS011;37694;51.748;14.326;2023-04-16T00:35:06;5.75;;;4.18;;
51612;SDS011;37694;51.748;14.326;2023-04-16T00:37:32;5.13;;;4.15;;
51612;SDS011;37694;51.748;14.326;2023-04-16T00:39:58;6.65;;;4.38;;
51612;SDS011;37694;51.748;14.326;2023-04-16T00:42:23;4.95;;;3.92;;
51612;SDS011;37694;51.748;14.326;2023-04-16T00:44:49;7.28;;;4.30;;
51612;SDS011;37694;51.748;14.326;2023-04-16T00:47:15;6.47;;;4.00;;
51612;SDS011;37694;51.748;14.326;2023-04-16T00:49:40;6.47;;;4.38;;
51612;SDS011;37694;51.748;14.326;2023-04-16T00:52:06;5.40;;;4.10;;
51612;SDS011;37694;51.748;14.326;2023-04-16T00:54:32;6.15;;;3.88;;
51612;SDS011;37694;51.748;14.326;2023-04-16T00:56:58;5.97;;;4.28;;
51612;SDS011;37694;51.748;14.326;2023-04-16T00:59:24;6.35;;;4.18;;
51612;SDS011;37694;51.748;14.326;2023-04-16T01:01:50;6.53;;;3.88;;
51612;SDS011;37694;51.748;14.326;2023-04-16T01:04:16;6.22;;;4.03;;
51612;SDS011;37694;51.748;14.326;2023-04-16T01:06:42;5.70;;;3.42;;
51612;SDS011;37694;51.748;14.326;2023-04-16T01:09:08;6.63;;;3.97;;
51612;SDS011;37694;51.748;14.326;2023-04-16T01:11:35;7.30;;;3.95;;
51612;SDS011;37694;51.748;14.326;2023-04-16T01:14:02;8.68;;;4.20;;
51612;SDS011;37694;51.748;14.326;2023-04-16T01:16:27;8.15;;;4.15;;
51612;SDS011;37694;51.748;14.326;2023-04-16T01:18:53;5.75;;;4.35;;
51612;SDS011;37694;51.748;14.326;2023-04-16T01:21:19;13.25;;;4.50;;
51612;SDS011;37694;51.748;14.326;2023-04-16T01:23:45;9.80;;;4.15;;
51612;SDS011;37694;51.748;14.326;2023-04-16T01:26:10;12.52;;;4.88;;
51612;SDS011;37694;51.748;14.326;2023-04-16T01:28:36;6.78;;;3.58;;
51612;SDS011;37694;51.748;14.326;2023-04-16T01:31:02;9.77;;;3.92;;
51612;SDS011;37694;51.748;14.326;2023-04-16T01:33:27;5.43;;;3.65;;
51612;SDS011;37694;51.748;14.326;2023-04-16T01:35:53;11.43;;;4.43;;
51612;SDS011;37694;51.748;14.326;2023-04-16T01:38:19;8.25;;;4.25;;
51612;SDS011;37694;51.748;14.326;2023-04-16T01:40:44;5.60;;;3.53;;
51612;SDS011;37694;51.748;14.326;2023-04-16T01:43:10;13.63;;;4.60;;
51612;SDS011;37694;51.748;14.326;2023-04-16T01:45:35;12.98;;;4.20;;
51612;SDS011;37694;51.748;14.326;2023-04-16T01:48:02;12.15;;;4.65;;
51612;SDS011;37694;51.748;14.326;2023-04-16T01:50:28;5.20;;;4.03;;
51612;SDS011;37694;51.748;14.326;2023-04-16T01:52:54;9.50;;;4.05;;
51612;SDS011;37694;51.748;14.326;2023-04-16T01:55:19;10.82;;;4.10;;
51612;SDS011;37694;51.748;14.326;2023-04-16T01:57:45;9.88;;;3.60;;
51612;SDS011;37694;51.748;14.326;2023-04-16T02:00:11;6.28;;;3.60;;
51612;SDS011;37694;51.748;14.326;2023-04-16T02:02:37;9.40;;;3.65;;
51612;SDS011;37694;51.748;14.326;2023-04-16T02:05:03;4.05;;;3.70;;
51612;SDS011;37694;51.748;14.326;2023-04-16T02:07:29;7.57;;;3.67;;
51612;SDS011;37694;51.748;14.326;2023-04-16T02:09:55;4.63;;;3.72;;
51612;SDS011;37694;51.748;14.326;2023-04-16T02:12:22;4.95;;;3.85;;
51612;SDS011;37694;51.748;14.326;2023-04-16T02:14:47;6.63;;;4.38;;
51612;SDS011;37694;51.748;14.326;2023-04-16T02:17:13;6.28;;;4.13;;
51612;SDS011;37694;51.748;14.326;2023-04-16T02:19:40;3.70;;;3.30;;
51612;SDS011;37694;51.748;14.326;2023-04-16T02:22:06;7.72;;;3.53;;
51612;SDS011;37694;51.748;14.326;2023-04-16T02:24:31;5.97;;;3.78;;
51612;SDS011;37694;51.748;14.326;2023-04-16T02:26:57;4.85;;;3.65;;
51612;SDS011;37694;51.748;14.326;2023-04-16T02:29:23;7.35;;;3.90;;
51612;SDS011;37694;51.748;14.326;2023-04-16T02:31:48;9.07;;;4.00;;
51612;SDS011;37694;51.748;14.326;2023-04-16T02:34:14;5.45;;;3.38;;
51612;SDS011;37694;51.748;14.326;2023-04-16T02:36:40;5.78;;;3.85;;
51612;SDS011;37694;51.748;14.326;2023-04-16T02:39:06;6.65;;;3.13;;
51612;SDS011;37694;51.748;14.326;2023-04-16T02:41:32;11.00;;;3.33;;
51612;SDS011;37694;51.748;14.326;2023-04-16T02:43:57;6.88;;;3.92;;
51612;SDS011;37694;51.748;14.326;2023-04-16T02:46:23;3.90;;;3.50;;
51612;SDS011;37694;51.748;14.326;2023-04-16T02:48:49;9.18;;;4.07;;
51612;SDS011;37694;51.748;14.326;2023-04-16T02:51:14;8.23;;;3.78;;
51612;SDS011;37694;51.748;14.326;2023-04-16T02:53:40;4.25;;;3.60;;
51612;SDS011;37694;51.748;14.326;2023-04-16T02:56:09;5.85;;;3.65;;
51612;SDS011;37694;51.748;14.326;2023-04-16T02:58:36;3.55;;;3.25;;
51612;SDS011;37694;51.748;14.326;2023-04-16T03:01:01;11.45;;;4.20;;
51612;SDS011;37694;51.748;14.326;2023-04-16T03:03:27;5.22;;;3.42;;
51612;SDS011;37694;51.748;14.326;2023-04-16T03:05:53;7.13;;;3.40;;
51612;SDS011;37694;51.748;14.326;2023-04-16T03:08:18;7.38;;;3.70;;
51612;SDS011;37694;51.748;14.326;2023-04-16T03:10:44;3.97;;;3.53;;
51612;SDS011;37694;51.748;14.326;2023-04-16T03:13:10;4.28;;;3.15;;
51612;SDS011;37694;51.748;14.326;2023-04-16T03:15:35;6.30;;;3.50;;
51612;SDS011;37694;51.748;14.326;2023-04-16T03:18:01;6.95;;;3.05;;
51612;SDS011;37694;51.748;14.326;2023-04-16T03:20:26;4.72;;;3.63;;
51612;SDS011;37694;51.748;14.326;2023-04-16T03:22:52;4.68;;;3.13;;
51612;SDS011;37694;51.748;14.326;2023-04-16T03:25:18;6.53;;;3.72;;
51612;SDS011;37694;51.748;14.326;2023-04-16T03:27:44;5.95;;;3.45;;
51612;SDS011;37694;51.748;14.326;2023-04-16T03:30:10;7.55;;;4.30;;
51612;SDS011;37694;51.748;14.326;2023-04-16T03:32:36;4.07;;;3.42;;
51612;SDS011;37694;51.748;14.326;2023-04-16T03:35:03;4.28;;;3.33;;
51612;SDS011;37694;51.748;14.326;2023-04-16T03:37:32;3.78;;;3.20;;
51612;SDS011;37694;51.748;14.326;2023-04-16T03:39:58;4.35;;;3.22;;
51612;SDS011;37694;51.748;14.326;2023-04-16T03:42:24;6.82;;;2.85;;
51612;SDS011;37694;51.748;14.326;2023-04-16T03:44:49;3.58;;;3.22;;
51612;SDS011;37694;51.748;14.326;2023-04-16T03:47:17;3.83;;;3.15;;
51612;SDS011;37694;51.748;14.326;2023-04-16T03:49:43;2.70;;;2.50;;
51612;SDS011;37694;51.748;14.326;2023-04-16T03:52:09;4.65;;;3.28;;
51612;SDS011;37694;51.748;14.326;2023-04-16T03:54:35;3.15;;;2.92;;
51612;SDS011;37694;51.748;14.326;2023-04-16T03:57:01;4.78;;;3.10;;
51612;SDS011;37694;51.748;14.326;2023-04-16T03:59:26;6.82;;;2.78;;
51612;SDS011;37694;51.748;14.326;2023-04-16T04:01:52;5.78;;;3.45;;
51612;SDS011;37694;51.748;14.326;2023-04-16T04:04:18;4.30;;;3.20;;
51612;SDS011;37694;51.748;14.326;2023-04-16T04:06:44;3.17;;;2.88;;
51612;SDS011;37694;51.748;14.326;2023-04-16T04:09:10;7.00;;;3.47;;
51612;SDS011;37694;51.748;14.326;2023-04-16T04:11:36;3.88;;;3.00;;
51612;SDS011;37694;51.748;14.326;2023-04-16T04:14:02;3.90;;;2.80;;
51612;SDS011;37694;51.748;14.326;2023-04-16T04:16:29;6.18;;;3.25;;
51612;SDS011;37694;51.748;14.326;2023-04-16T04:18:57;6.50;;;3.47;;
51612;SDS011;37694;51.748;14.326;2023-04-16T04:21:24;3.50;;;3.20;;
51612;SDS011;37694;51.748;14.326;2023-04-16T04:23:51;4.68;;;3.38;;
51612;SDS011;37694;51.748;14.326;2023-04-16T04:26:16;7.22;;;3.10;;
51612;SDS011;37694;51.748;14.326;2023-04-16T04:28:42;4.50;;;2.72;;
51612;SDS011;37694;51.748;14.326;2023-04-16T04:31:08;3.42;;;2.80;;
51612;SDS011;37694;51.748;14.326;2023-04-16T04:33:33;2.85;;;2.65;;
51612;SDS011;37694;51.748;14.326;2023-04-16T04:35:59;3.92;;;2.85;;
51612;SDS011;37694;51.748;14.326;2023-04-16T04:38:25;3.60;;;3.22;;
51612;SDS011;37694;51.748;14.326;2023-04-16T04:40:51;4.22;;;2.60;;
51612;SDS011;37694;51.748;14.326;2023-04-16T04:43:17;3.72;;;2.88;;
51612;SDS011;37694;51.748;14.326;2023-04-16T04:45:44;3.30;;;2.78;;
51612;SDS011;37694;51.748;14.326;2023-04-16T04:48:10;2.92;;;2.50;;
51612;SDS011;37694;51.748;14.326;2023-04-16T04:50:36;3.67;;;2.95;;
51612;SDS011;37694;51.748;14.326;2023-04-16T04:53:02;4.57;;;3.20;;
51612;SDS011;37694;51.748;14.326;2023-04-16T04:55:33;3.42;;;2.67;;
51612;SDS011;37694;51.748;14.326;2023-04-16T04:58:03;4.15;;;3.00;;
51612;SDS011;37694;51.748;14.326;2023-04-16T05:00:31;3.60;;;3.30;;
51612;SDS011;37694;51.748;14.326;2023-04-16T05:02:57;3.15;;;2.85;;
51612;SDS011;37694;51.748;14.326;2023-04-16T05:05:26;4.65;;;3.25;;
51612;SDS011;37694;51.748;14.326;2023-04-16T05:07:51;3.38;;;3.10;;
51612;SDS011;37694;51.748;14.326;2023-04-16T05:10:17;3.97;;;3.20;;
51612;SDS011;37694;51.748;14.326;2023-04-16T05:12:43;7.63;;;3.50;;
51612;SDS011;37694;51.748;14.326;2023-04-16T05:15:09;4.53;;;3.35;;
51612;SDS011;37694;51.748;14.326;2023-04-16T05:17:35;3.30;;;2.60;;
51612;SDS011;37694;51.748;14.326;2023-04-16T05:20:01;3.00;;;2.80;;
51612;SDS011;37694;51.748;14.326;2023-04-16T05:22:26;3.58;;;3.03;;
51612;SDS011;37694;51.748;14.326;2023-04-16T05:24:52;6.18;;;3.15;;
51612;SDS011;37694;51.748;14.326;2023-04-16T05:27:18;3.00;;;2.58;;
51612;SDS011;37694;51.748;14.326;2023-04-16T05:29:43;5.90;;;3.05;;
51612;SDS011;37694;51.748;14.326;2023-04-16T05:32:09;3.55;;;3.03;;
51612;SDS011;37694;51.748;14.326;2023-04-16T05:34:34;5.57;;;2.78;;
51612;SDS011;37694;51.748;14.326;2023-04-16T05:37:00;14.05;;;2.88;;
51612;SDS011;37694;51.748;14.326;2023-04-16T05:39:26;7.63;;;2.80;;
51612;SDS011;37694;51.748;14.326;2023-04-16T05:41:52;5.53;;;2.80;;
51612;SDS011;37694;51.748;14.326;2023-04-16T05:44:17;7.07;;;2.78;;
51612;SDS011;37694;51.748;14.326;2023-04-16T05:46:43;7.57;;;2.92;;
51612;SDS011;37694;51.748;14.326;2023-04-16T05:49:09;5.20;;;2.83;;
51612;SDS011;37694;51.748;14.326;2023-04-16T05:51:35;9.77;;;3.00;;
51612;SDS011;37694;51.748;14.326;2023-04-16T05:54:00;7.78;;;2.92;;
51612;SDS011;37694;51.748;14.326;2023-04-16T05:56:26;12.25;;;2.80;;
51612;SDS011;37694;51.748;14.326;2023-04-16T05:58:52;6.15;;;2.88;;
51612;SDS011;37694;51.748;14.326;2023-04-16T06:01:17;4.80;;;2.85;;
51612;SDS011;37694;51.748;14.326;2023-04-16T06:03:43;3.88;;;2.70;;
51612;SDS011;37694;51.748;14.326;2023-04-16T06:06:09;8.73;;;2.80;;
51612;SDS011;37694;51.748;14.326;2023-04-16T06:08:35;8.10;;;2.45;;
51612;SDS011;37694;51.748;14.326;2023-04-16T06:11:00;10.32;;;2.80;;
51612;SDS011;37694;51.748;14.326;2023-04-16T06:13:27;6.45;;;3.13;;
51612;SDS011;37694;51.748;14.326;2023-04-16T06:15:52;11.00;;;3.08;;
51612;SDS011;37694;51.748;14.326;2023-04-16T06:18:18;16.10;;;3.20;;
51612;SDS011;37694;51.748;14.326;2023-04-16T06:20:44;4.97;;;2.90;;
51612;SDS011;37694;51.748;14.326;2023-04-16T06:23:09;8.35;;;3.08;;
51612;SDS011;37694;51.748;14.326;2023-04-16T06:25:35;13.52;;;3.15;;
51612;SDS011;37694;51.748;14.326;2023-04-16T06:28:01;10.75;;;3.20;;
51612;SDS011;37694;51.748;14.326;2023-04-16T06:30:26;5.25;;;2.97;;
51612;SDS011;37694;51.748;14.326;2023-04-16T06:32:52;9.80;;;2.60;;
51612;SDS011;37694;51.748;14.326;2023-04-16T06:35:18;5.68;;;2.63;;
51612;SDS011;37694;51.748;14.326;2023-04-16T06:37:44;6.82;;;2.72;;
51612;SDS011;37694;51.748;14.326;2023-04-16T06:40:10;14.35;;;2.70;;
51612;SDS011;37694;51.748;14.326;2023-04-16T06:42:36;6.72;;;2.83;;
51612;SDS011;37694;51.748;14.326;2023-04-16T06:45:02;4.60;;;2.47;;
51612;SDS011;37694;51.748;14.326;2023-04-16T06:47:28;4.43;;;2.42;;
51612;SDS011;37694;51.748;14.326;2023-04-16T06:49:54;7.97;;;3.03;;
51612;SDS011;37694;51.748;14.326;2023-04-16T06:52:19;4.93;;;2.45;;
51612;SDS011;37694;51.748;14.326;2023-04-16T06:54:45;8.52;;;2.95;;
51612;SDS011;37694;51.748;14.326;2023-04-16T06:57:11;7.60;;;2.67;;
51612;SDS011;37694;51.748;14.326;2023-04-16T06:59:37;15.10;;;2.85;;
51612;SDS011;37694;51.748;14.326;2023-04-16T07:02:03;10.70;;;2.97;;
51612;SDS011;37694;51.748;14.326;2023-04-16T07:04:28;5.65;;;2.45;;
51612;SDS011;37694;51.748;14.326;2023-04-16T07:06:54;4.85;;;2.63;;
51612;SDS011;37694;51.748;14.326;2023-04-16T07:09:20;6.03;;;3.08;;
51612;SDS011;37694;51.748;14.326;2023-04-16T07:11:45;6.82;;;2.38;;
51612;SDS011;37694;51.748;14.326;2023-04-16T07:14:11;3.47;;;2.10;;
51612;SDS011;37694;51.748;14.326;2023-04-16T07:16:38;4.38;;;2.42;;
51612;SDS011;37694;51.748;14.326;2023-04-16T07:19:04;4.78;;;2.50;;
51612;SDS011;37694;51.748;14.326;2023-04-16T07:21:30;5.15;;;2.65;;
51612;SDS011;37694;51.748;14.326;2023-04-16T07:23:55;7.20;;;2.67;;
51612;SDS011;37694;51.748;14.326;2023-04-16T07:26:21;3.60;;;2.85;;
51612;SDS011;37694;51.748;14.326;2023-04-16T07:28:47;10.13;;;2.72;;
51612;SDS011;37694;51.748;14.326;2023-04-16T07:31:13;8.32;;;2.45;;
51612;SDS011;37694;51.748;14.326;2023-04-16T07:33:38;9.15;;;3.35;;
51612;SDS011;37694;51.748;14.326;2023-04-16T07:36:04;4.60;;;2.28;;
51612;SDS011;37694;51.748;14.326;2023-04-16T07:38:30;16.08;;;3.13;;
51612;SDS011;37694;51.748;14.326;2023-04-16T07:40:56;6.82;;;2.72;;
51612;SDS011;37694;51.748;14.326;2023-04-16T07:43:21;13.93;;;2.72;;
51612;SDS011;37694;51.748;14.326;2023-04-16T07:45:47;7.60;;;2.67;;
51612;SDS011;37694;51.748;14.326;2023-04-16T07:48:13;8.95;;;2.25;;
51612;SDS011;37694;51.748;14.326;2023-04-16T07:50:38;12.40;;;2.30;;
51612;SDS011;37694;51.748;14.326;2023-04-16T07:53:05;22.15;;;2.95;;
51612;SDS011;37694;51.748;14.326;2023-04-16T07:55:31;5.78;;;2.30;;
51612;SDS011;37694;51.748;14.326;2023-04-16T07:57:57;8.52;;;2.70;;
51612;SDS011;37694;51.748;14.326;2023-04-16T08:00:22;13.55;;;3.00;;
51612;SDS011;37694;51.748;14.326;2023-04-16T08:02:48;12.45;;;2.88;;
51612;SDS011;37694;51.748;14.326;2023-04-16T08:05:14;11.02;;;3.10;;
51612;SDS011;37694;51.748;14.326;2023-04-16T08:07:40;11.70;;;2.90;;
51612;SDS011;37694;51.748;14.326;2023-04-16T08:10:05;19.77;;;3.47;;
51612;SDS011;37694;51.748;14.326;2023-04-16T08:12:32;9.77;;;2.92;;
51612;SDS011;37694;51.748;14.326;2023-04-16T08:14:58;15.00;;;2.60;;
51612;SDS011;37694;51.748;14.326;2023-04-16T08:17:23;7.13;;;2.70;;
51612;SDS011;37694;51.748;14.326;2023-04-16T08:19:49;44.47;;;4.25;;
51612;SDS011;37694;51.748;14.326;2023-04-16T08:22:15;28.02;;;3.90;;
51612;SDS011;37694;51.748;14.326;2023-04-16T08:24:41;24.13;;;4.57;;
51612;SDS011;37694;51.748;14.326;2023-04-16T08:27:06;20.23;;;3.60;;
51612;SDS011;37694;51.748;14.326;2023-04-16T08:29:32;18.17;;;3.65;;
51612;SDS011;37694;51.748;14.326;2023-04-16T08:31:58;17.58;;;3.53;;
51612;SDS011;37694;51.748;14.326;2023-04-16T08:34:24;22.70;;;3.28;;
51612;SDS011;37694;51.748;14.326;2023-04-16T08:36:50;11.63;;;2.92;;
51612;SDS011;37694;51.748;14.326;2023-04-16T08:39:15;30.88;;;3.85;;
51612;SDS011;37694;51.748;14.326;2023-04-16T08:41:42;14.32;;;3.47;;
51612;SDS011;37694;51.748;14.326;2023-04-16T08:44:13;12.50;;;3.05;;
51612;SDS011;37694;51.748;14.326;2023-04-16T08:46:47;13.35;;;3.67;;
51612;SDS011;37694;51.748;14.326;2023-04-16T08:49:16;10.52;;;3.58;;
51612;SDS011;37694;51.748;14.326;2023-04-16T08:51:42;21.48;;;3.53;;
51612;SDS011;37694;51.748;14.326;2023-04-16T08:54:14;14.93;;;3.28;;
51612;SDS011;37694;51.748;14.326;2023-04-16T08:56:56;15.60;;;3.45;;
51612;SDS011;37694;51.748;14.326;2023-04-16T08:59:24;18.30;;;3.53;;
51612;SDS011;37694;51.748;14.326;2023-04-16T09:01:50;11.90;;;3.22;;
51612;SDS011;37694;51.748;14.326;2023-04-16T09:04:21;9.48;;;3.33;;
51612;SDS011;37694;51.748;14.326;2023-04-16T09:06:48;13.55;;;3.13;;
51612;SDS011;37694;51.748;14.326;2023-04-16T09:09:14;10.60;;;3.83;;
51612;SDS011;37694;51.748;14.326;2023-04-16T09:11:41;26.17;;;3.35;;
51612;SDS011;37694;51.748;14.326;2023-04-16T09:14:09;37.20;;;3.75;;
51612;SDS011;37694;51.748;14.326;2023-04-16T09:16:36;11.45;;;3.28;;
51612;SDS011;37694;51.748;14.326;2023-04-16T09:19:03;20.02;;;3.60;;
51612;SDS011;37694;51.748;14.326;2023-04-16T09:21:29;14.52;;;3.10;;
51612;SDS011;37694;51.748;14.326;2023-04-16T09:23:56;17.45;;;3.20;;
51612;SDS011;37694;51.748;14.326;2023-04-16T09:26:23;7.78;;;2.83;;
51612;SDS011;37694;51.748;14.326;2023-04-16T09:28:50;10.48;;;3.13;;
51612;SDS011;37694;51.748;14.326;2023-04-16T09:31:16;9.77;;;2.90;;
51612;SDS011;37694;51.748;14.326;2023-04-16T09:33:43;19.20;;;4.25;;
51612;SDS011;37694;51.748;14.326;2023-04-16T09:36:29;14.40;;;3.53;;
51612;SDS011;37694;51.748;14.326;2023-04-16T09:38:57;9.98;;;2.88;;
51612;SDS011;37694;51.748;14.326;2023-04-16T09:41:24;16.73;;;3.53;;
51612;SDS011;37694;51.748;14.326;2023-04-16T09:43:59;23.33;;;3.30;;
51612;SDS011;37694;51.748;14.326;2023-04-16T09:48:56;13.60;;;3.50;;
51612;SDS011;37694;51.748;14.326;2023-04-16T09:51:22;15.88;;;3.92;;
51612;SDS011;37694;51.748;14.326;2023-04-16T09:53:55;25.00;;;3.45;;
51612;SDS011;37694;51.748;14.326;2023-04-16T09:56:24;20.55;;;3.88;;
51612;SDS011;37694;51.748;14.326;2023-04-16T09:58:50;13.55;;;3.63;;
51612;SDS011;37694;51.748;14.326;2023-04-16T10:01:20;17.98;;;3.85;;
51612;SDS011;37694;51.748;14.326;2023-04-16T10:03:47;10.77;;;3.80;;
51612;SDS011;37694;51.748;14.326;2023-04-16T10:06:18;19.30;;;4.13;;
51612;SDS011;37694;51.748;14.326;2023-04-16T10:11:11;18.45;;;3.50;;
51612;SDS011;37694;51.748;14.326;2023-04-16T10:13:37;14.70;;;4.45;;
51612;SDS011;37694;51.748;14.326;2023-04-16T10:16:03;26.38;;;4.90;;
51612;SDS011;37694;51.748;14.326;2023-04-16T10:18:29;10.02;;;3.83;;
51612;SDS011;37694;51.748;14.326;2023-04-16T10:20:55;10.10;;;3.85;;
51612;SDS011;37694;51.748;14.326;2023-04-16T10:23:22;19.10;;;3.85;;
51612;SDS011;37694;51.748;14.326;2023-04-16T10:25:48;18.75;;;4.00;;
51612;SDS011;37694;51.748;14.326;2023-04-16T10:28:14;19.33;;;4.00;;
51612;SDS011;37694;51.748;14.326;2023-04-16T10:30:42;17.27;;;4.55;;
51612;SDS011;37694;51.748;14.326;2023-04-16T10:33:16;12.68;;;4.25;;
51612;SDS011;37694;51.748;14.326;2023-04-16T10:35:46;13.05;;;3.88;;
51612;SDS011;37694;51.748;14.326;2023-04-16T10:38:20;13.30;;;4.15;;
51612;SDS011;37694;51.748;14.326;2023-04-16T10:40:47;8.45;;;4.00;;
51612;SDS011;37694;51.748;14.326;2023-04-16T10:43:16;7.13;;;3.60;;
51612;SDS011;37694;51.748;14.326;2023-04-16T10:45:43;11.32;;;3.58;;
51612;SDS011;37694;51.748;14.326;2023-04-16T10:48:08;14.18;;;3.80;;
51612;SDS011;37694;51.748;14.326;2023-04-16T10:50:35;20.52;;;4.20;;
51612;SDS011;37694;51.748;14.326;2023-04-16T10:56:10;17.80;;;4.22;;
51612;SDS011;37694;51.748;14.326;2023-04-16T10:58:36;21.23;;;3.63;;
51612;SDS011;37694;51.748;14.326;2023-04-16T11:01:06;7.38;;;3.95;;
51612;SDS011;37694;51.748;14.326;2023-04-16T11:03:39;8.20;;;3.67;;
51612;SDS011;37694;51.748;14.326;2023-04-16T11:08:39;7.20;;;3.30;;
51612;SDS011;37694;51.748;14.326;2023-04-16T11:11:05;12.30;;;3.72;;
51612;SDS011;37694;51.748;14.326;2023-04-16T11:13:31;11.32;;;3.22;;
51612;SDS011;37694;51.748;14.326;2023-04-16T11:15:57;12.00;;;3.35;;
51612;SDS011;37694;51.748;14.326;2023-04-16T11:18:23;10.95;;;3.70;;
51612;SDS011;37694;51.748;14.326;2023-04-16T11:20:50;15.35;;;3.83;;
51612;SDS011;37694;51.748;14.326;2023-04-16T11:23:16;10.43;;;3.58;;
51612;SDS011;37694;51.748;14.326;2023-04-16T11:25:41;13.30;;;3.28;;
51612;SDS011;37694;51.748;14.326;2023-04-16T11:28:07;22.80;;;3.92;;
51612;SDS011;37694;51.748;14.326;2023-04-16T11:30:35;13.30;;;3.75;;
51612;SDS011;37694;51.748;14.326;2023-04-16T11:33:09;12.80;;;4.30;;
51612;SDS011;37694;51.748;14.326;2023-04-16T11:35:35;11.80;;;3.83;;
51612;SDS011;37694;51.748;14.326;2023-04-16T11:38:03;11.02;;;3.17;;
51612;SDS011;37694;51.748;14.326;2023-04-16T11:40:31;15.25;;;3.85;;
51612;SDS011;37694;51.748;14.326;2023-04-16T11:43:00;7.00;;;3.38;;
51612;SDS011;37694;51.748;14.326;2023-04-16T11:45:27;7.85;;;3.40;;
51612;SDS011;37694;51.748;14.326;2023-04-16T11:47:53;6.15;;;3.05;;
51612;SDS011;37694;51.748;14.326;2023-04-16T11:50:22;6.50;;;2.85;;
51612;SDS011;37694;51.748;14.326;2023-04-16T11:52:49;12.13;;;3.88;;
51612;SDS011;37694;51.748;14.326;2023-04-16T11:55:16;7.22;;;3.33;;
51612;SDS011;37694;51.748;14.326;2023-04-16T11:57:42;6.93;;;2.85;;
51612;SDS011;37694;51.748;14.326;2023-04-16T12:00:09;14.40;;;3.75;;
51612;SDS011;37694;51.748;14.326;2023-04-16T12:07:54;14.35;;;3.22;;
51612;SDS011;37694;51.748;14.326;2023-04-16T12:10:20;9.63;;;3.05;;
51612;SDS011;37694;51.748;14.326;2023-04-16T12:12:46;9.45;;;3.28;;
51612;SDS011;37694;51.748;14.326;2023-04-16T12:15:12;8.63;;;2.70;;
51612;SDS011;37694;51.748;14.326;2023-04-16T12:17:37;8.70;;;2.75;;
51612;SDS011;37694;51.748;14.326;2023-04-16T12:20:07;7.10;;;3.08;;
51612;SDS011;37694;51.748;14.326;2023-04-16T12:22:35;5.68;;;2.72;;
51612;SDS011;37694;51.748;14.326;2023-04-16T12:25:06;8.70;;;3.08;;
51612;SDS011;37694;51.748;14.326;2023-04-16T12:30:10;5.03;;;2.83;;
51612;SDS011;37694;51.748;14.326;2023-04-16T12:32:37;14.88;;;3.30;;
51612;SDS011;37694;51.748;14.326;2023-04-16T12:35:03;11.55;;;3.53;;
51612;SDS011;37694;51.748;14.326;2023-04-16T12:37:29;11.10;;;3.13;;
51612;SDS011;37694;51.748;14.326;2023-04-16T12:39:55;17.25;;;4.50;;
51612;SDS011;37694;51.748;14.326;2023-04-16T12:42:21;17.08;;;3.55;;
51612;SDS011;37694;51.748;14.326;2023-04-16T12:44:47;13.70;;;3.38;;
51612;SDS011;37694;51.748;14.326;2023-04-16T12:47:12;27.85;;;3.83;;
51612;SDS011;37694;51.748;14.326;2023-04-16T12:49:38;19.35;;;4.03;;
51612;SDS011;37694;51.748;14.326;2023-04-16T12:52:04;14.45;;;3.67;;
51612;SDS011;37694;51.748;14.326;2023-04-16T12:54:31;16.13;;;3.97;;
51612;SDS011;37694;51.748;14.326;2023-04-16T12:56:56;10.23;;;3.05;;
51612;SDS011;37694;51.748;14.326;2023-04-16T12:59:22;30.05;;;3.50;;
51612;SDS011;37694;51.748;14.326;2023-04-16T13:01:48;16.73;;;3.20;;
51612;SDS011;37694;51.748;14.326;2023-04-16T13:04:14;24.25;;;3.40;;
51612;SDS011;37694;51.748;14.326;2023-04-16T13:06:40;17.50;;;3.85;;
51612;SDS011;37694;51.748;14.326;2023-04-16T13:09:05;23.50;;;3.65;;
51612;SDS011;37694;51.748;14.326;2023-04-16T13:11:31;8.75;;;2.83;;
51612;SDS011;37694;51.748;14.326;2023-04-16T13:13:57;16.73;;;3.28;;
51612;SDS011;37694;51.748;14.326;2023-04-16T13:16:23;5.70;;;2.90;;
51612;SDS011;37694;51.748;14.326;2023-04-16T13:18:48;10.13;;;2.95;;
51612;SDS011;37694;51.748;14.326;2023-04-16T13:21:14;14.02;;;3.40;;
51612;SDS011;37694;51.748;14.326;2023-04-16T13:23:40;10.43;;;3.00;;
51612;SDS011;37694;51.748;14.326;2023-04-16T13:26:05;9.57;;;2.90;;
51612;SDS011;37694;51.748;14.326;2023-04-16T13:28:31;8.15;;;2.80;;
51612;SDS011;37694;51.748;14.326;2023-04-16T13:30:57;9.55;;;3.22;;
51612;SDS011;37694;51.748;14.326;2023-04-16T13:33:23;17.10;;;2.95;;
51612;SDS011;37694;51.748;14.326;2023-04-16T13:35:49;10.15;;;3.25;;
51612;SDS011;37694;51.748;14.326;2023-04-16T13:38:15;9.93;;;2.75;;
51612;SDS011;37694;51.748;14.326;2023-04-16T13:40:41;11.07;;;3.08;;
51612;SDS011;37694;51.748;14.326;2023-04-16T13:43:07;9.55;;;3.42;;
51612;SDS011;37694;51.748;14.326;2023-04-16T13:45:32;8.68;;;2.75;;
51612;SDS011;37694;51.748;14.326;2023-04-16T13:47:58;4.13;;;2.55;;
51612;SDS011;37694;51.748;14.326;2023-04-16T13:50:24;8.07;;;2.30;;
51612;SDS011;37694;51.748;14.326;2023-04-16T13:52:50;3.80;;;1.80;;
51612;SDS011;37694;51.748;14.326;2023-04-16T13:55:16;7.38;;;2.47;;
51612;SDS011;37694;51.748;14.326;2023-04-16T13:57:44;6.10;;;2.20;;
51612;SDS011;37694;51.748;14.326;2023-04-16T14:00:11;11.45;;;2.17;;
51612;SDS011;37694;51.748;14.326;2023-04-16T14:02:38;4.45;;;2.40;;
51612;SDS011;37694;51.748;14.326;2023-04-16T14:05:04;5.07;;;1.80;;
51612;SDS011;37694;51.748;14.326;2023-04-16T14:07:30;3.72;;;2.10;;
51612;SDS011;37694;51.748;14.326;2023-04-16T14:09:56;4.35;;;1.92;;
51612;SDS011;37694;51.748;14.326;2023-04-16T14:12:22;7.05;;;2.17;;
51612;SDS011;37694;51.748;14.326;2023-04-16T14:14:48;2.15;;;1.77;;
51612;SDS011;37694;51.748;14.326;2023-04-16T14:17:13;4.95;;;1.92;;
51612;SDS011;37694;51.748;14.326;2023-04-16T14:19:39;5.05;;;2.15;;
51612;SDS011;37694;51.748;14.326;2023-04-16T14:22:05;6.07;;;2.20;;
51612;SDS011;37694;51.748;14.326;2023-04-16T14:24:31;4.97;;;2.28;;
51612;SDS011;37694;51.748;14.326;2023-04-16T14:26:57;3.65;;;1.77;;
51612;SDS011;37694;51.748;14.326;2023-04-16T14:29:23;6.45;;;2.00;;
51612;SDS011;37694;51.748;14.326;2023-04-16T14:31:48;5.63;;;1.83;;
51612;SDS011;37694;51.748;14.326;2023-04-16T14:34:15;14.63;;;2.03;;
51612;SDS011;37694;51.748;14.326;2023-04-16T14:36:41;6.93;;;2.08;;
51612;SDS011;37694;51.748;14.326;2023-04-16T14:39:07;8.45;;;2.33;;
51612;SDS011;37694;51.748;14.326;2023-04-16T14:41:33;4.20;;;2.08;;
51612;SDS011;37694;51.748;14.326;2023-04-16T14:43:58;5.25;;;1.90;;